sensor_id;sensor_type;location;lat;lon;timestamp;pressure;altitude;pressure_sealevel;temperature;humidity
19751;BME280;4663;49.120;9.730;2022-08-16T00:00:59;97381.00;;;14.11;85.42
19751;BME280;4663;49.120;9.730;2022-08-16T00:03:24;97380.53;;;14.15;85.53
19751;BME280;4663;49.120;9.730;2022-08-16T00:05:50;97380.19;;;14.11;85.80
19751;BME280;4663;49.120;9.730;2022-08-16T00:08:17;97380.06;;;13.99;86.75
19751;BME280;4663;49.120;9.730;2022-08-16T00:10:43;97376.53;;;13.98;87.09
19751;BME280;4663;49.120;9.730;2022-08-16T00:13:09;97394.94;;;13.96;87.55
19751;BME280;4663;49.120;9.730;2022-08-16T00:15:44;97386.78;;;13.96;85.88
19751;BME280;4663;49.120;9.730;2022-08-16T00:18:10;97391.44;;;13.89;86.04
19751;BME280;4663;49.120;9.730;2022-08-16T00:20:38;97393.94;;;13.91;85.47
19751;BME280;4663;49.120;9.730;2022-08-16T00:23:05;97388.22;;;13.99;85.50
19751;BME280;4663;49.120;9.730;2022-08-16T00:25:31;97379.75;;;13.89;85.84
19751;BME280;4663;49.120;9.730;2022-08-16T00:27:56;97379.84;;;14.01;85.64
19751;BME280;4663;49.120;9.730;2022-08-16T00:30:22;97384.72;;;13.92;86.09
19751;BME280;4663;49.120;9.730;2022-08-16T00:32:50;97385.41;;;13.87;85.21
19751;BME280;4663;49.120;9.730;2022-08-16T00:35:22;97390.47;;;13.77;86.96
19751;BME280;4663;49.120;9.730;2022-08-16T00:37:48;97388.63;;;13.45;88.45
19751;BME280;4663;49.120;9.730;2022-08-16T00:40:21;97385.28;;;13.50;88.74
19751;BME280;4663;49.120;9.730;2022-08-16T00:42:47;97380.03;;;13.22;88.05
19751;BME280;4663;49.120;9.730;2022-08-16T00:45:37;97382.06;;;13.34;87.19
19751;BME280;4663;49.120;9.730;2022-08-16T00:48:07;97380.84;;;13.30;86.71
19751;BME280;4663;49.120;9.730;2022-08-16T00:50:35;97389.13;;;13.35;87.35
19751;BME280;4663;49.120;9.730;2022-08-16T00:53:01;97389.22;;;13.21;88.09
19751;BME280;4663;49.120;9.730;2022-08-16T00:55:26;97381.91;;;13.29;86.37
19751;BME280;4663;49.120;9.730;2022-08-16T00:57:55;97391.97;;;13.47;87.88
19751;BME280;4663;49.120;9.730;2022-08-16T01:00:22;97386.25;;;13.30;86.55
19751;BME280;4663;49.120;9.730;2022-08-16T01:02:52;97386.19;;;13.37;86.41
19751;BME280;4663;49.120;9.730;2022-08-16T01:05:18;97395.13;;;13.44;86.27
19751;BME280;4663;49.120;9.730;2022-08-16T01:07:43;97397.78;;;13.51;86.78
19751;BME280;4663;49.120;9.730;2022-08-16T01:10:10;97396.81;;;13.38;86.14
19751;BME280;4663;49.120;9.730;2022-08-16T01:12:35;97394.75;;;13.01;87.55
19751;BME280;4663;49.120;9.730;2022-08-16T01:15:01;97396.88;;;12.92;88.03
19751;BME280;4663;49.120;9.730;2022-08-16T01:17:28;97393.44;;;13.17;87.35
19751;BME280;4663;49.120;9.730;2022-08-16T01:19:57;97392.56;;;13.24;86.95
19751;BME280;4663;49.120;9.730;2022-08-16T01:22:41;97394.03;;;13.19;88.73
19751;BME280;4663;49.120;9.730;2022-08-16T01:25:38;97397.25;;;13.03;88.47
19751;BME280;4663;49.120;9.730;2022-08-16T01:28:08;97400.38;;;13.06;88.42
19751;BME280;4663;49.120;9.730;2022-08-16T01:30:38;97405.63;;;12.94;89.88
19751;BME280;4663;49.120;9.730;2022-08-16T01:33:06;97402.94;;;12.88;87.95
19751;BME280;4663;49.120;9.730;2022-08-16T01:35:35;97408.31;;;13.01;87.38
19751;BME280;4663;49.120;9.730;2022-08-16T01:38:52;97410.69;;;12.84;89.65
19751;BME280;4663;49.120;9.730;2022-08-16T01:41:20;97407.88;;;13.04;88.47
19751;BME280;4663;49.120;9.730;2022-08-16T01:43:47;97405.41;;;12.96;89.44
19751;BME280;4663;49.120;9.730;2022-08-16T01:49:18;97416.50;;;12.88;89.36
19751;BME280;4663;49.120;9.730;2022-08-16T01:51:47;97418.53;;;12.99;88.93
19751;BME280;4663;49.120;9.730;2022-08-16T01:54:12;97410.41;;;12.99;87.96
19751;BME280;4663;49.120;9.730;2022-08-16T01:56:38;97411.91;;;12.88;87.61
19751;BME280;4663;49.120;9.730;2022-08-16T01:59:07;97412.75;;;12.82;87.81
19751;BME280;4663;49.120;9.730;2022-08-16T02:01:33;97413.75;;;12.94;87.99
19751;BME280;4663;49.120;9.730;2022-08-16T02:03:59;97405.22;;;12.91;87.26
19751;BME280;4663;49.120;9.730;2022-08-16T02:06:26;97414.69;;;12.68;88.84
19751;BME280;4663;49.120;9.730;2022-08-16T02:08:51;97411.78;;;12.69;88.18
19751;BME280;4663;49.120;9.730;2022-08-16T02:11:19;97403.13;;;12.93;87.95
19751;BME280;4663;49.120;9.730;2022-08-16T02:13:44;97409.81;;;12.90;89.54
19751;BME280;4663;49.120;9.730;2022-08-16T02:16:11;97400.09;;;12.76;89.75
19751;BME280;4663;49.120;9.730;2022-08-16T02:18:37;97408.91;;;12.64;91.16
19751;BME280;4663;49.120;9.730;2022-08-16T02:21:04;97402.47;;;12.52;90.49
19751;BME280;4663;49.120;9.730;2022-08-16T02:23:32;97402.59;;;12.70;89.07
19751;BME280;4663;49.120;9.730;2022-08-16T02:25:58;97397.41;;;12.76;87.34
19751;BME280;4663;49.120;9.730;2022-08-16T02:28:24;97396.34;;;12.77;87.56
19751;BME280;4663;49.120;9.730;2022-08-16T02:30:52;97410.94;;;12.69;89.08
19751;BME280;4663;49.120;9.730;2022-08-16T02:33:20;97407.88;;;12.58;87.85
19751;BME280;4663;49.120;9.730;2022-08-16T02:35:46;97412.03;;;12.61;88.69
19751;BME280;4663;49.120;9.730;2022-08-16T02:38:11;97414.16;;;12.45;88.79
19751;BME280;4663;49.120;9.730;2022-08-16T02:40:37;97411.50;;;12.32;90.89
19751;BME280;4663;49.120;9.730;2022-08-16T02:43:04;97415.91;;;12.13;92.29
19751;BME280;4663;49.120;9.730;2022-08-16T02:45:29;97409.66;;;12.19;92.15
19751;BME280;4663;49.120;9.730;2022-08-16T02:47:56;97411.13;;;12.15;91.05
19751;BME280;4663;49.120;9.730;2022-08-16T02:50:22;97407.19;;;12.11;91.12
19751;BME280;4663;49.120;9.730;2022-08-16T02:52:48;97402.56;;;12.25;90.09
19751;BME280;4663;49.120;9.730;2022-08-16T02:55:14;97394.69;;;12.16;89.66
19751;BME280;4663;49.120;9.730;2022-08-16T02:57:39;97390.88;;;12.31;88.98
19751;BME280;4663;49.120;9.730;2022-08-16T03:00:08;97397.56;;;12.22;88.95
19751;BME280;4663;49.120;9.730;2022-08-16T03:02:35;97395.91;;;12.27;89.17
19751;BME280;4663;49.120;9.730;2022-08-16T03:05:02;97398.41;;;12.15;88.47
19751;BME280;4663;49.120;9.730;2022-08-16T03:07:28;97401.75;;;12.17;90.29
19751;BME280;4663;49.120;9.730;2022-08-16T03:09:54;97401.34;;;12.07;90.52
19751;BME280;4663;49.120;9.730;2022-08-16T03:12:21;97399.03;;;12.17;90.71
19751;BME280;4663;49.120;9.730;2022-08-16T03:14:48;97395.50;;;12.10;90.71
19751;BME280;4663;49.120;9.730;2022-08-16T03:17:14;97391.13;;;12.16;89.91
19751;BME280;4663;49.120;9.730;2022-08-16T03:19:39;97390.53;;;12.07;90.19
19751;BME280;4663;49.120;9.730;2022-08-16T03:22:05;97388.22;;;11.97;89.57
19751;BME280;4663;49.120;9.730;2022-08-16T03:24:31;97387.19;;;11.98;88.68
19751;BME280;4663;49.120;9.730;2022-08-16T03:26:58;97387.19;;;12.12;88.75
19751;BME280;4663;49.120;9.730;2022-08-16T03:29:25;97384.28;;;11.93;90.37
19751;BME280;4663;49.120;9.730;2022-08-16T03:31:51;97380.53;;;11.87;90.33
19751;BME280;4663;49.120;9.730;2022-08-16T03:34:17;97380.09;;;12.04;88.68
19751;BME280;4663;49.120;9.730;2022-08-16T03:36:42;97382.81;;;11.90;90.00
19751;BME280;4663;49.120;9.730;2022-08-16T03:39:08;97393.66;;;11.63;91.44
19751;BME280;4663;49.120;9.730;2022-08-16T03:41:33;97392.00;;;11.83;89.96
19751;BME280;4663;49.120;9.730;2022-08-16T03:43:59;97394.50;;;11.57;91.26
19751;BME280;4663;49.120;9.730;2022-08-16T03:46:24;97393.03;;;11.68;90.11
19751;BME280;4663;49.120;9.730;2022-08-16T03:48:49;97394.50;;;11.64;91.99
19751;BME280;4663;49.120;9.730;2022-08-16T03:51:16;97391.78;;;11.71;91.02
19751;BME280;4663;49.120;9.730;2022-08-16T03:53:42;97386.56;;;11.76;90.67
19751;BME280;4663;49.120;9.730;2022-08-16T03:56:09;97394.28;;;11.65;91.46
19751;BME280;4663;49.120;9.730;2022-08-16T03:58:35;97409.06;;;11.63;91.16
19751;BME280;4663;49.120;9.730;2022-08-16T04:01:01;97402.41;;;11.65;91.12
19751;BME280;4663;49.120;9.730;2022-08-16T04:03:27;97393.47;;;11.45;92.02
19751;BME280;4663;49.120;9.730;2022-08-16T04:05:53;97390.53;;;11.46;91.33
19751;BME280;4663;49.120;9.730;2022-08-16T04:08:19;97393.06;;;11.61;90.91
19751;BME280;4663;49.120;9.730;2022-08-16T04:10:46;97389.72;;;11.59;90.88
19751;BME280;4663;49.120;9.730;2022-08-16T04:13:12;97388.25;;;11.63;89.49
19751;BME280;4663;49.120;9.730;2022-08-16T04:15:37;97386.16;;;11.79;88.49
19751;BME280;4663;49.120;9.730;2022-08-16T04:18:03;97385.56;;;11.77;88.27
19751;BME280;4663;49.120;9.730;2022-08-16T04:20:28;97392.59;;;11.85;88.97
19751;BME280;4663;49.120;9.730;2022-08-16T04:22:55;97395.72;;;11.95;88.61
19751;BME280;4663;49.120;9.730;2022-08-16T04:25:21;97400.09;;;11.89;89.08
19751;BME280;4663;49.120;9.730;2022-08-16T04:27:48;97396.59;;;11.68;89.52
19751;BME280;4663;49.120;9.730;2022-08-16T04:30:15;97398.44;;;11.75;89.46
19751;BME280;4663;49.120;9.730;2022-08-16T04:32:41;97392.22;;;11.81;89.15
19751;BME280;4663;49.120;9.730;2022-08-16T04:35:09;97406.75;;;11.80;89.77
19751;BME280;4663;49.120;9.730;2022-08-16T04:37:35;97403.25;;;11.73;89.75
19751;BME280;4663;49.120;9.730;2022-08-16T04:40:01;97401.34;;;11.80;89.43
19751;BME280;4663;49.120;9.730;2022-08-16T04:42:27;97409.47;;;11.66;90.93
19751;BME280;4663;49.120;9.730;2022-08-16T04:44:53;97414.06;;;11.73;91.25
19751;BME280;4663;49.120;9.730;2022-08-16T04:47:20;97415.06;;;11.65;91.22
19751;BME280;4663;49.120;9.730;2022-08-16T04:49:45;97414.44;;;11.56;92.40
19751;BME280;4663;49.120;9.730;2022-08-16T04:52:10;97416.53;;;11.54;92.50
19751;BME280;4663;49.120;9.730;2022-08-16T04:54:36;97420.47;;;11.31;93.46
19751;BME280;4663;49.120;9.730;2022-08-16T04:57:02;97423.63;;;10.79;95.68
19751;BME280;4663;49.120;9.730;2022-08-16T04:59:27;97428.56;;;11.18;95.59
19751;BME280;4663;49.120;9.730;2022-08-16T05:01:53;97429.66;;;11.57;92.95
19751;BME280;4663;49.120;9.730;2022-08-16T05:04:22;97437.13;;;11.48;92.35
19751;BME280;4663;49.120;9.730;2022-08-16T05:06:48;97445.44;;;11.80;91.83
19751;BME280;4663;49.120;9.730;2022-08-16T05:09:13;97447.75;;;12.17;90.02
19751;BME280;4663;49.120;9.730;2022-08-16T05:11:39;97437.88;;;12.57;87.71
19751;BME280;4663;49.120;9.730;2022-08-16T05:14:04;97442.53;;;12.02;89.87
19751;BME280;4663;49.120;9.730;2022-08-16T05:16:30;97448.97;;;12.22;89.48
19751;BME280;4663;49.120;9.730;2022-08-16T05:18:58;97450.75;;;12.62;88.38
19751;BME280;4663;49.120;9.730;2022-08-16T05:21:25;97436.78;;;13.17;85.91
19751;BME280;4663;49.120;9.730;2022-08-16T05:23:53;97440.03;;;12.87;86.66
19751;BME280;4663;49.120;9.730;2022-08-16T05:26:18;97449.38;;;12.98;87.81
19751;BME280;4663;49.120;9.730;2022-08-16T05:28:44;97439.75;;;13.41;86.28
19751;BME280;4663;49.120;9.730;2022-08-16T05:31:09;97443.53;;;13.40;86.64
19751;BME280;4663;49.120;9.730;2022-08-16T05:33:35;97439.50;;;13.50;87.38
19751;BME280;4663;49.120;9.730;2022-08-16T05:36:00;97439.53;;;13.43;86.12
19751;BME280;4663;49.120;9.730;2022-08-16T05:38:26;97444.41;;;13.34;88.09
19751;BME280;4663;49.120;9.730;2022-08-16T05:40:58;97454.06;;;13.23;86.91
19751;BME280;4663;49.120;9.730;2022-08-16T05:43:26;97456.13;;;13.60;85.75
19751;BME280;4663;49.120;9.730;2022-08-16T05:45:52;97460.66;;;13.66;86.33
19751;BME280;4663;49.120;9.730;2022-08-16T05:48:17;97458.13;;;13.97;84.00
19751;BME280;4663;49.120;9.730;2022-08-16T05:50:43;97458.69;;;14.06;83.87
19751;BME280;4663;49.120;9.730;2022-08-16T05:53:08;97462.09;;;14.01;84.63
19751;BME280;4663;49.120;9.730;2022-08-16T05:55:34;97462.72;;;14.41;83.31
19751;BME280;4663;49.120;9.730;2022-08-16T05:57:59;97467.22;;;14.72;82.83
19751;BME280;4663;49.120;9.730;2022-08-16T06:00:25;97461.44;;;15.18;80.95
19751;BME280;4663;49.120;9.730;2022-08-16T06:02:51;97458.59;;;15.13;80.73
19751;BME280;4663;49.120;9.730;2022-08-16T06:05:17;97461.63;;;14.86;82.55
19751;BME280;4663;49.120;9.730;2022-08-16T06:07:43;97461.41;;;14.06;84.30
19751;BME280;4663;49.120;9.730;2022-08-16T06:10:09;97455.13;;;14.68;83.39
19751;BME280;4663;49.120;9.730;2022-08-16T06:12:35;97452.38;;;14.94;82.19
19751;BME280;4663;49.120;9.730;2022-08-16T06:15:03;97450.16;;;14.65;83.19
19751;BME280;4663;49.120;9.730;2022-08-16T06:17:31;97453.25;;;15.37;80.91
19751;BME280;4663;49.120;9.730;2022-08-16T06:19:57;97451.22;;;15.63;79.46
19751;BME280;4663;49.120;9.730;2022-08-16T06:22:22;97455.63;;;15.45;80.66
19751;BME280;4663;49.120;9.730;2022-08-16T06:24:48;97458.19;;;15.59;80.02
19751;BME280;4663;49.120;9.730;2022-08-16T06:27:15;97458.88;;;16.45;78.40
19751;BME280;4663;49.120;9.730;2022-08-16T06:29:41;97457.28;;;16.13;77.55
19751;BME280;4663;49.120;9.730;2022-08-16T06:32:08;97463.44;;;15.42;80.20
19751;BME280;4663;49.120;9.730;2022-08-16T06:34:35;97455.75;;;15.93;78.38
19751;BME280;4663;49.120;9.730;2022-08-16T06:37:01;97458.69;;;16.75;76.89
19751;BME280;4663;49.120;9.730;2022-08-16T06:39:27;97454.38;;;17.62;74.55
19751;BME280;4663;49.120;9.730;2022-08-16T06:41:53;97447.25;;;18.29;73.09
19751;BME280;4663;49.120;9.730;2022-08-16T06:44:18;97447.53;;;18.67;71.93
19751;BME280;4663;49.120;9.730;2022-08-16T06:46:44;97460.81;;;17.73;74.27
19751;BME280;4663;49.120;9.730;2022-08-16T06:49:10;97451.00;;;17.42;74.59
19751;BME280;4663;49.120;9.730;2022-08-16T06:51:37;97454.66;;;17.48;74.80
19751;BME280;4663;49.120;9.730;2022-08-16T06:54:04;97451.84;;;18.63;72.99
19751;BME280;4663;49.120;9.730;2022-08-16T06:56:30;97450.19;;;19.29;69.87
19751;BME280;4663;49.120;9.730;2022-08-16T06:58:55;97451.97;;;19.46;69.17
19751;BME280;4663;49.120;9.730;2022-08-16T07:01:21;97449.22;;;19.41;70.02
19751;BME280;4663;49.120;9.730;2022-08-16T07:03:47;97451.28;;;19.61;68.41
19751;BME280;4663;49.120;9.730;2022-08-16T07:06:13;97453.06;;;19.45;68.62
19751;BME280;4663;49.120;9.730;2022-08-16T07:08:38;97461.59;;;18.19;71.73
19751;BME280;4663;49.120;9.730;2022-08-16T07:11:06;97468.06;;;18.70;72.68
19751;BME280;4663;49.120;9.730;2022-08-16T07:13:32;97459.09;;;18.97;70.35
19751;BME280;4663;49.120;9.730;2022-08-16T07:15:57;97461.06;;;19.51;68.81
19751;BME280;4663;49.120;9.730;2022-08-16T07:18:24;97452.81;;;19.79;68.65
19751;BME280;4663;49.120;9.730;2022-08-16T07:20:49;97460.13;;;19.68;68.74
19751;BME280;4663;49.120;9.730;2022-08-16T07:23:18;97462.44;;;18.59;70.92
19751;BME280;4663;49.120;9.730;2022-08-16T07:25:43;97463.09;;;18.67;71.73
19751;BME280;4663;49.120;9.730;2022-08-16T07:28:11;97462.59;;;19.70;70.12
19751;BME280;4663;49.120;9.730;2022-08-16T07:30:37;97454.75;;;19.51;69.26
19751;BME280;4663;49.120;9.730;2022-08-16T07:33:04;97461.13;;;20.65;67.80
19751;BME280;4663;49.120;9.730;2022-08-16T07:35:30;97465.25;;;21.37;65.89
19751;BME280;4663;49.120;9.730;2022-08-16T07:37:56;97455.03;;;21.17;65.22
19751;BME280;4663;49.120;9.730;2022-08-16T07:40:21;97467.22;;;21.78;64.94
19751;BME280;4663;49.120;9.730;2022-08-16T07:42:47;97470.78;;;21.89;64.48
19751;BME280;4663;49.120;9.730;2022-08-16T07:45:13;97460.91;;;21.52;64.08
19751;BME280;4663;49.120;9.730;2022-08-16T07:47:39;97455.50;;;20.45;67.81
19751;BME280;4663;49.120;9.730;2022-08-16T07:50:05;97458.31;;;21.24;66.11
19751;BME280;4663;49.120;9.730;2022-08-16T07:52:30;97462.03;;;21.66;64.17
19751;BME280;4663;49.120;9.730;2022-08-16T07:54:56;97461.66;;;21.32;64.41
19751;BME280;4663;49.120;9.730;2022-08-16T07:57:22;97459.28;;;21.92;64.02
19751;BME280;4663;49.120;9.730;2022-08-16T07:59:47;97462.00;;;21.61;64.63
19751;BME280;4663;49.120;9.730;2022-08-16T08:02:13;97454.91;;;21.97;64.01
19751;BME280;4663;49.120;9.730;2022-08-16T08:04:39;97460.59;;;23.29;62.16
19751;BME280;4663;49.120;9.730;2022-08-16T08:07:05;97466.91;;;23.80;60.94
19751;BME280;4663;49.120;9.730;2022-08-16T08:09:31;97460.88;;;24.42;59.11
19751;BME280;4663;49.120;9.730;2022-08-16T08:11:57;97460.34;;;24.89;58.56
19751;BME280;4663;49.120;9.730;2022-08-16T08:14:22;97462.41;;;25.02;57.73
19751;BME280;4663;49.120;9.730;2022-08-16T08:16:47;97467.44;;;25.77;56.51
19751;BME280;4663;49.120;9.730;2022-08-16T08:19:14;97466.28;;;25.21;56.97
19751;BME280;4663;49.120;9.730;2022-08-16T08:21:40;97468.31;;;26.25;55.64
19751;BME280;4663;49.120;9.730;2022-08-16T08:24:08;97459.50;;;25.13;55.76
19751;BME280;4663;49.120;9.730;2022-08-16T08:26:34;97474.97;;;26.24;55.63
19751;BME280;4663;49.120;9.730;2022-08-16T08:29:00;97460.34;;;24.89;56.38
19751;BME280;4663;49.120;9.730;2022-08-16T08:31:26;97460.84;;;23.72;58.66
19751;BME280;4663;49.120;9.730;2022-08-16T08:33:51;97465.31;;;23.73;59.24
19751;BME280;4663;49.120;9.730;2022-08-16T08:36:28;97470.06;;;25.69;56.48
19751;BME280;4663;49.120;9.730;2022-08-16T08:38:55;97456.41;;;26.72;54.63
19751;BME280;4663;49.120;9.730;2022-08-16T08:41:21;97451.72;;;27.38;52.90
19751;BME280;4663;49.120;9.730;2022-08-16T08:43:48;97462.94;;;25.43;55.04
19751;BME280;4663;49.120;9.730;2022-08-16T08:46:13;97483.06;;;25.68;55.56
19751;BME280;4663;49.120;9.730;2022-08-16T08:48:38;97468.41;;;25.68;54.60
19751;BME280;4663;49.120;9.730;2022-08-16T08:51:06;97475.06;;;26.19;54.71
19751;BME280;4663;49.120;9.730;2022-08-16T08:53:32;97468.56;;;24.94;55.35
19751;BME280;4663;49.120;9.730;2022-08-16T08:55:58;97472.72;;;24.67;55.75
19751;BME280;4663;49.120;9.730;2022-08-16T08:58:24;97462.06;;;25.28;54.96
19751;BME280;4663;49.120;9.730;2022-08-16T09:00:50;97481.94;;;25.69;54.94
19751;BME280;4663;49.120;9.730;2022-08-16T09:03:15;97451.06;;;26.62;51.77
19751;BME280;4663;49.120;9.730;2022-08-16T09:05:41;97466.06;;;25.94;52.77
19751;BME280;4663;49.120;9.730;2022-08-16T09:08:08;97470.69;;;25.79;53.28
19751;BME280;4663;49.120;9.730;2022-08-16T09:10:34;97465.47;;;26.45;52.86
19751;BME280;4663;49.120;9.730;2022-08-16T09:13:00;97461.63;;;27.67;51.46
19751;BME280;4663;49.120;9.730;2022-08-16T09:15:26;97460.41;;;26.04;52.52
19751;BME280;4663;49.120;9.730;2022-08-16T09:17:52;97463.78;;;26.63;52.08
19751;BME280;4663;49.120;9.730;2022-08-16T09:20:21;97466.78;;;27.45;51.58
19751;BME280;4663;49.120;9.730;2022-08-16T09:22:47;97456.72;;;27.64;50.70
19751;BME280;4663;49.120;9.730;2022-08-16T09:25:15;97465.69;;;25.48;53.44
19751;BME280;4663;49.120;9.730;2022-08-16T09:27:41;97468.91;;;25.70;54.02
19751;BME280;4663;49.120;9.730;2022-08-16T09:30:07;97462.84;;;27.61;51.91
19751;BME280;4663;49.120;9.730;2022-08-16T09:32:33;97461.88;;;24.76;54.24
19751;BME280;4663;49.120;9.730;2022-08-16T09:34:59;97471.88;;;26.12;53.28
19751;BME280;4663;49.120;9.730;2022-08-16T09:37:29;97466.03;;;25.61;53.49
19751;BME280;4663;49.120;9.730;2022-08-16T09:39:56;97464.50;;;24.86;54.44
19751;BME280;4663;49.120;9.730;2022-08-16T09:42:22;97461.88;;;25.00;54.27
19751;BME280;4663;49.120;9.730;2022-08-16T09:44:48;97463.31;;;24.68;55.42
19751;BME280;4663;49.120;9.730;2022-08-16T09:47:13;97468.75;;;25.03;55.06
19751;BME280;4663;49.120;9.730;2022-08-16T09:49:39;97465.22;;;25.60;54.54
19751;BME280;4663;49.120;9.730;2022-08-16T09:52:05;97454.03;;;25.08;53.97
19751;BME280;4663;49.120;9.730;2022-08-16T09:54:30;97464.16;;;26.42;53.07
19751;BME280;4663;49.120;9.730;2022-08-16T09:56:56;97456.91;;;27.53;50.77
19751;BME280;4663;49.120;9.730;2022-08-16T09:59:23;97453.78;;;27.32;50.39
19751;BME280;4663;49.120;9.730;2022-08-16T10:01:50;97446.97;;;26.59;51.50
19751;BME280;4663;49.120;9.730;2022-08-16T10:04:16;97452.50;;;25.78;52.71
19751;BME280;4663;49.120;9.730;2022-08-16T10:06:42;97435.56;;;24.35;53.94
19751;BME280;4663;49.120;9.730;2022-08-16T10:09:10;97453.81;;;25.04;53.93
19751;BME280;4663;49.120;9.730;2022-08-16T10:11:36;97445.72;;;25.13;53.68
19751;BME280;4663;49.120;9.730;2022-08-16T10:14:22;97448.38;;;25.37;52.83
19751;BME280;4663;49.120;9.730;2022-08-16T10:16:48;97426.44;;;26.46;51.24
19751;BME280;4663;49.120;9.730;2022-08-16T10:19:14;97440.59;;;26.87;51.26
19751;BME280;4663;49.120;9.730;2022-08-16T10:21:40;97436.63;;;26.03;51.17
19751;BME280;4663;49.120;9.730;2022-08-16T10:24:07;97432.03;;;25.79;51.80
19751;BME280;4663;49.120;9.730;2022-08-16T10:26:34;97431.19;;;24.29;53.62
19751;BME280;4663;49.120;9.730;2022-08-16T10:29:01;97438.38;;;24.54;53.43
19751;BME280;4663;49.120;9.730;2022-08-16T10:31:26;97422.59;;;24.84;52.88
19751;BME280;4663;49.120;9.730;2022-08-16T10:33:52;97443.00;;;25.08;53.70
19751;BME280;4663;49.120;9.730;2022-08-16T10:36:19;97438.94;;;24.27;55.06
19751;BME280;4663;49.120;9.730;2022-08-16T10:38:44;97441.56;;;24.42;54.72
19751;BME280;4663;49.120;9.730;2022-08-16T10:41:10;97438.53;;;23.39;56.43
19751;BME280;4663;49.120;9.730;2022-08-16T10:43:38;97431.09;;;23.40;56.11
19751;BME280;4663;49.120;9.730;2022-08-16T10:46:06;97431.38;;;22.82;56.64
19751;BME280;4663;49.120;9.730;2022-08-16T10:48:32;97432.50;;;23.32;56.35
19751;BME280;4663;49.120;9.730;2022-08-16T10:50:58;97425.38;;;23.31;55.74
19751;BME280;4663;49.120;9.730;2022-08-16T10:53:26;97438.03;;;23.72;55.97
19751;BME280;4663;49.120;9.730;2022-08-16T10:55:52;97433.94;;;24.34;54.40
19751;BME280;4663;49.120;9.730;2022-08-16T10:58:17;97432.25;;;23.68;54.72
19751;BME280;4663;49.120;9.730;2022-08-16T11:00:43;97442.00;;;23.00;56.17
19751;BME280;4663;49.120;9.730;2022-08-16T11:03:09;97442.41;;;23.33;55.41
19751;BME280;4663;49.120;9.730;2022-08-16T11:05:36;97440.72;;;23.37;55.28
19751;BME280;4663;49.120;9.730;2022-08-16T11:08:03;97443.25;;;23.68;55.63
19751;BME280;4663;49.120;9.730;2022-08-16T11:10:32;97456.13;;;23.43;55.95
19751;BME280;4663;49.120;9.730;2022-08-16T11:12:58;97448.59;;;23.14;56.15
19751;BME280;4663;49.120;9.730;2022-08-16T11:15:24;97458.69;;;22.37;57.24
19751;BME280;4663;49.120;9.730;2022-08-16T11:17:52;97458.56;;;22.94;56.90
19751;BME280;4663;49.120;9.730;2022-08-16T11:20:19;97461.97;;;22.44;57.69
19751;BME280;4663;49.120;9.730;2022-08-16T11:22:45;97464.22;;;22.16;57.59
19751;BME280;4663;49.120;9.730;2022-08-16T11:25:13;97455.38;;;22.45;57.71
19751;BME280;4663;49.120;9.730;2022-08-16T11:27:39;97456.88;;;22.99;56.68
19751;BME280;4663;49.120;9.730;2022-08-16T11:30:08;97458.31;;;23.46;56.32
19751;BME280;4663;49.120;9.730;2022-08-16T11:32:35;97455.09;;;24.09;55.75
19751;BME280;4663;49.120;9.730;2022-08-16T11:35:06;97459.53;;;24.05;55.56
19751;BME280;4663;49.120;9.730;2022-08-16T11:37:32;97452.50;;;23.48;55.91
19751;BME280;4663;49.120;9.730;2022-08-16T11:39:59;97456.75;;;24.10;55.06
19751;BME280;4663;49.120;9.730;2022-08-16T11:42:24;97453.47;;;24.37;54.35
19751;BME280;4663;49.120;9.730;2022-08-16T11:44:50;97457.41;;;24.26;53.95
19751;BME280;4663;49.120;9.730;2022-08-16T11:47:15;97452.72;;;24.27;54.19
19751;BME280;4663;49.120;9.730;2022-08-16T11:49:41;97450.03;;;24.51;53.69
19751;BME280;4663;49.120;9.730;2022-08-16T11:52:06;97450.94;;;24.66;54.06
19751;BME280;4663;49.120;9.730;2022-08-16T11:54:32;97455.63;;;25.14;53.36
19751;BME280;4663;49.120;9.730;2022-08-16T11:56:58;97448.31;;;25.04;52.68
19751;BME280;4663;49.120;9.730;2022-08-16T11:59:25;97448.47;;;25.51;52.01
19751;BME280;4663;49.120;9.730;2022-08-16T12:01:54;97445.41;;;25.14;52.13
19751;BME280;4663;49.120;9.730;2022-08-16T12:04:20;97447.56;;;24.98;51.87
19751;BME280;4663;49.120;9.730;2022-08-16T12:06:47;97451.44;;;24.97;52.07
19751;BME280;4663;49.120;9.730;2022-08-16T12:09:13;97441.28;;;24.93;51.84
19751;BME280;4663;49.120;9.730;2022-08-16T12:11:38;97439.28;;;25.18;51.71
19751;BME280;4663;49.120;9.730;2022-08-16T12:14:04;97431.09;;;25.12;51.53
19751;BME280;4663;49.120;9.730;2022-08-16T12:16:35;97432.41;;;24.96;51.80
19751;BME280;4663;49.120;9.730;2022-08-16T12:19:06;97437.63;;;24.48;52.40
19751;BME280;4663;49.120;9.730;2022-08-16T12:21:32;97437.72;;;25.31;51.80
19751;BME280;4663;49.120;9.730;2022-08-16T12:23:58;97432.97;;;25.56;50.78
19751;BME280;4663;49.120;9.730;2022-08-16T12:26:23;97438.72;;;25.59;50.63
19751;BME280;4663;49.120;9.730;2022-08-16T12:28:49;97432.75;;;25.52;50.92
19751;BME280;4663;49.120;9.730;2022-08-16T12:31:20;97432.88;;;25.41;51.28
19751;BME280;4663;49.120;9.730;2022-08-16T12:33:47;97429.41;;;25.88;50.48
19751;BME280;4663;49.120;9.730;2022-08-16T12:36:12;97426.38;;;25.71;51.20
19751;BME280;4663;49.120;9.730;2022-08-16T12:38:38;97424.59;;;25.94;50.51
19751;BME280;4663;49.120;9.730;2022-08-16T12:41:04;97424.38;;;26.10;50.24
19751;BME280;4663;49.120;9.730;2022-08-16T12:43:29;97425.25;;;25.33;51.38
19751;BME280;4663;49.120;9.730;2022-08-16T12:45:56;97428.19;;;25.42;51.07
19751;BME280;4663;49.120;9.730;2022-08-16T12:48:27;97427.72;;;25.35;51.43
19751;BME280;4663;49.120;9.730;2022-08-16T12:51:15;97416.91;;;25.91;50.45
19751;BME280;4663;49.120;9.730;2022-08-16T12:53:41;97412.69;;;25.79;50.75
19751;BME280;4663;49.120;9.730;2022-08-16T12:56:08;97406.84;;;25.81;50.51
19751;BME280;4663;49.120;9.730;2022-08-16T12:58:36;97406.06;;;25.61;49.97
19751;BME280;4663;49.120;9.730;2022-08-16T13:01:03;97408.69;;;25.72;50.02
19751;BME280;4663;49.120;9.730;2022-08-16T13:03:29;97406.75;;;26.06;50.04
19751;BME280;4663;49.120;9.730;2022-08-16T13:05:54;97407.19;;;25.94;50.25
19751;BME280;4663;49.120;9.730;2022-08-16T13:08:20;97405.56;;;26.26;49.21
19751;BME280;4663;49.120;9.730;2022-08-16T13:10:48;97391.00;;;26.20;49.36